sensor_id;sensor_type;location;lat;lon;timestamp;P1;durP1;ratioP1;P2;durP2;ratioP2
67162;SDS011;54092;53.088;8.850;2023-11-18T00:01:44;22.30;;;10.43;;
67162;SDS011;54092;53.088;8.850;2023-11-18T00:04:10;17.95;;;8.32;;
67162;SDS011;54092;53.088;8.850;2023-11-18T00:06:43;16.83;;;9.02;;
67162;SDS011;54092;53.088;8.850;2023-11-18T00:09:13;20.57;;;9.80;;
67162;SDS011;54092;53.088;8.850;2023-11-18T00:11:42;23.63;;;9.75;;
67162;SDS011;54092;53.088;8.850;2023-11-18T00:14:08;22.05;;;10.98;;
67162;SDS011;54092;53.088;8.850;2023-11-18T00:16:36;16.80;;;9.32;;
67162;SDS011;54092;53.088;8.850;2023-11-18T00:19:02;20.73;;;9.85;;
67162;SDS011;54092;53.088;8.850;2023-11-18T00:21:30;19.58;;;10.13;;
67162;SDS011;54092;53.088;8.850;2023-11-18T00:23:55;17.45;;;9.75;;
67162;SDS011;54092;53.088;8.850;2023-11-18T00:26:21;20.60;;;9.45;;
67162;SDS011;54092;53.088;8.850;2023-11-18T00:28:47;19.95;;;9.48;;
67162;SDS011;54092;53.088;8.850;2023-11-18T00:31:13;16.95;;;9.00;;
67162;SDS011;54092;53.088;8.850;2023-11-18T00:33:39;18.58;;;8.68;;
67162;SDS011;54092;53.088;8.850;2023-11-18T00:36:05;18.10;;;8.60;;
67162;SDS011;54092;53.088;8.850;2023-11-18T00:38:31;17.42;;;8.65;;
67162;SDS011;54092;53.088;8.850;2023-11-18T00:40:57;15.50;;;7.68;;
67162;SDS011;54092;53.088;8.850;2023-11-18T00:43:22;15.48;;;7.57;;
67162;SDS011;54092;53.088;8.850;2023-11-18T00:45:48;15.43;;;8.15;;
67162;SDS011;54092;53.088;8.850;2023-11-18T00:48:14;14.52;;;7.43;;
67162;SDS011;54092;53.088;8.850;2023-11-18T00:50:39;16.30;;;8.18;;
67162;SDS011;54092;53.088;8.850;2023-11-18T00:53:05;16.00;;;8.45;;
67162;SDS011;54092;53.088;8.850;2023-11-18T00:55:31;16.75;;;7.65;;
67162;SDS011;54092;53.088;8.850;2023-11-18T00:57:56;15.85;;;7.45;;
67162;SDS011;54092;53.088;8.850;2023-11-18T01:00:23;15.25;;;7.47;;
67162;SDS011;54092;53.088;8.850;2023-11-18T01:02:52;15.93;;;8.48;;
67162;SDS011;54092;53.088;8.850;2023-11-18T01:05:19;16.92;;;7.10;;
67162;SDS011;54092;53.088;8.850;2023-11-18T01:07:45;14.05;;;7.28;;
67162;SDS011;54092;53.088;8.850;2023-11-18T01:10:11;16.10;;;7.63;;
67162;SDS011;54092;53.088;8.850;2023-11-18T01:12:38;15.50;;;7.05;;
67162;SDS011;54092;53.088;8.850;2023-11-18T01:15:04;13.65;;;7.70;;
67162;SDS011;54092;53.088;8.850;2023-11-18T01:17:30;15.63;;;7.90;;
67162;SDS011;54092;53.088;8.850;2023-11-18T01:19:56;12.95;;;7.15;;
67162;SDS011;54092;53.088;8.850;2023-11-18T01:22:22;14.48;;;8.10;;
67162;SDS011;54092;53.088;8.850;2023-11-18T01:24:47;13.27;;;7.97;;
67162;SDS011;54092;53.088;8.850;2023-11-18T01:27:13;17.20;;;8.32;;
67162;SDS011;54092;53.088;8.850;2023-11-18T01:29:39;14.90;;;8.10;;
67162;SDS011;54092;53.088;8.850;2023-11-18T01:32:07;13.35;;;7.22;;
67162;SDS011;54092;53.088;8.850;2023-11-18T01:34:36;15.45;;;7.80;;
67162;SDS011;54092;53.088;8.850;2023-11-18T01:37:04;13.43;;;7.28;;
67162;SDS011;54092;53.088;8.850;2023-11-18T01:39:32;14.80;;;7.40;;
67162;SDS011;54092;53.088;8.850;2023-11-18T01:41:58;14.70;;;8.07;;
67162;SDS011;54092;53.088;8.850;2023-11-18T01:44:24;14.10;;;7.78;;
67162;SDS011;54092;53.088;8.850;2023-11-18T01:46:50;13.77;;;6.95;;
67162;SDS011;54092;53.088;8.850;2023-11-18T01:49:16;16.85;;;8.13;;
67162;SDS011;54092;53.088;8.850;2023-11-18T01:51:43;16.95;;;7.97;;
67162;SDS011;54092;53.088;8.850;2023-11-18T01:54:10;14.40;;;7.15;;
67162;SDS011;54092;53.088;8.850;2023-11-18T01:56:40;12.05;;;6.68;;
67162;SDS011;54092;53.088;8.850;2023-11-18T01:59:11;18.38;;;7.28;;
67162;SDS011;54092;53.088;8.850;2023-11-18T02:01:43;15.75;;;8.18;;
67162;SDS011;54092;53.088;8.850;2023-11-18T02:04:16;16.02;;;7.22;;
67162;SDS011;54092;53.088;8.850;2023-11-18T02:06:44;15.70;;;7.35;;
67162;SDS011;54092;53.088;8.850;2023-11-18T02:09:12;13.60;;;6.82;;
67162;SDS011;54092;53.088;8.850;2023-11-18T02:11:39;12.80;;;6.97;;
67162;SDS011;54092;53.088;8.850;2023-11-18T02:14:13;13.00;;;6.82;;
67162;SDS011;54092;53.088;8.850;2023-11-18T02:16:41;15.95;;;7.25;;
67162;SDS011;54092;53.088;8.850;2023-11-18T02:19:10;13.00;;;6.80;;
67162;SDS011;54092;53.088;8.850;2023-11-18T02:21:45;13.98;;;7.22;;
67162;SDS011;54092;53.088;8.850;2023-11-18T02:24:11;12.45;;;6.38;;
67162;SDS011;54092;53.088;8.850;2023-11-18T02:26:56;11.38;;;6.50;;
67162;SDS011;54092;53.088;8.850;2023-11-18T02:29:23;13.73;;;7.65;;
67162;SDS011;54092;53.088;8.850;2023-11-18T02:31:51;14.80;;;6.95;;
67162;SDS011;54092;53.088;8.850;2023-11-18T02:34:22;13.13;;;7.13;;
67162;SDS011;54092;53.088;8.850;2023-11-18T02:36:52;12.48;;;6.70;;
67162;SDS011;54092;53.088;8.850;2023-11-18T02:39:29;11.88;;;6.45;;
67162;SDS011;54092;53.088;8.850;2023-11-18T02:42:03;12.95;;;6.85;;
67162;SDS011;54092;53.088;8.850;2023-11-18T02:44:33;11.95;;;6.63;;
67162;SDS011;54092;53.088;8.850;2023-11-18T02:47:03;11.80;;;6.38;;
67162;SDS011;54092;53.088;8.850;2023-11-18T02:49:36;12.20;;;5.90;;
67162;SDS011;54092;53.088;8.850;2023-11-18T02:52:02;10.02;;;6.07;;
67162;SDS011;54092;53.088;8.850;2023-11-18T02:54:27;13.50;;;6.90;;
67162;SDS011;54092;53.088;8.850;2023-11-18T02:56:53;12.20;;;6.40;;
67162;SDS011;54092;53.088;8.850;2023-11-18T02:59:19;16.75;;;7.47;;
67162;SDS011;54092;53.088;8.850;2023-11-18T03:01:45;12.55;;;7.05;;
67162;SDS011;54092;53.088;8.850;2023-11-18T03:04:10;13.15;;;7.05;;
67162;SDS011;54092;53.088;8.850;2023-11-18T03:06:38;10.73;;;6.63;;
67162;SDS011;54092;53.088;8.850;2023-11-18T03:09:05;12.70;;;7.05;;
67162;SDS011;54092;53.088;8.850;2023-11-18T03:11:33;12.98;;;6.97;;
67162;SDS011;54092;53.088;8.850;2023-11-18T03:13:59;11.52;;;6.47;;
67162;SDS011;54092;53.088;8.850;2023-11-18T03:16:25;11.73;;;6.95;;
67162;SDS011;54092;53.088;8.850;2023-11-18T03:18:50;11.70;;;6.25;;
67162;SDS011;54092;53.088;8.850;2023-11-18T03:21:16;12.85;;;6.68;;
67162;SDS011;54092;53.088;8.850;2023-11-18T03:23:43;10.88;;;6.28;;
67162;SDS011;54092;53.088;8.850;2023-11-18T03:26:08;12.77;;;7.05;;
67162;SDS011;54092;53.088;8.850;2023-11-18T03:28:35;12.27;;;6.13;;
67162;SDS011;54092;53.088;8.850;2023-11-18T03:31:02;10.65;;;5.85;;
67162;SDS011;54092;53.088;8.850;2023-11-18T03:33:29;12.70;;;6.38;;
67162;SDS011;54092;53.088;8.850;2023-11-18T03:35:54;14.75;;;6.40;;
67162;SDS011;54092;53.088;8.850;2023-11-18T03:38:21;11.82;;;6.50;;
67162;SDS011;54092;53.088;8.850;2023-11-18T03:40:46;11.85;;;6.50;;
67162;SDS011;54092;53.088;8.850;2023-11-18T03:43:12;10.60;;;6.38;;
67162;SDS011;54092;53.088;8.850;2023-11-18T03:45:41;13.43;;;6.38;;
67162;SDS011;54092;53.088;8.850;2023-11-18T03:48:07;12.50;;;6.13;;
67162;SDS011;54092;53.088;8.850;2023-11-18T03:50:36;12.48;;;6.72;;
67162;SDS011;54092;53.088;8.850;2023-11-18T03:53:01;15.50;;;7.25;;
67162;SDS011;54092;53.088;8.850;2023-11-18T03:55:28;12.55;;;6.63;;
67162;SDS011;54092;53.088;8.850;2023-11-18T03:57:55;12.45;;;6.20;;
67162;SDS011;54092;53.088;8.850;2023-11-18T04:00:22;12.80;;;6.70;;
67162;SDS011;54092;53.088;8.850;2023-11-18T04:02:47;12.90;;;7.25;;
67162;SDS011;54092;53.088;8.850;2023-11-18T04:05:13;13.02;;;7.18;;
67162;SDS011;54092;53.088;8.850;2023-11-18T04:07:39;14.73;;;7.43;;
67162;SDS011;54092;53.088;8.850;2023-11-18T04:10:08;12.13;;;6.75;;
67162;SDS011;54092;53.088;8.850;2023-11-18T04:12:35;16.25;;;7.57;;
67162;SDS011;54092;53.088;8.850;2023-11-18T04:15:02;12.88;;;7.75;;
67162;SDS011;54092;53.088;8.850;2023-11-18T04:17:29;14.10;;;7.07;;
67162;SDS011;54092;53.088;8.850;2023-11-18T04:19:55;17.00;;;8.07;;
67162;SDS011;54092;53.088;8.850;2023-11-18T04:22:21;13.70;;;7.57;;
67162;SDS011;54092;53.088;8.850;2023-11-18T04:24:47;14.05;;;7.93;;
67162;SDS011;54092;53.088;8.850;2023-11-18T04:27:13;14.93;;;7.47;;
67162;SDS011;54092;53.088;8.850;2023-11-18T04:29:38;14.82;;;8.13;;
67162;SDS011;54092;53.088;8.850;2023-11-18T04:32:05;15.18;;;8.27;;
67162;SDS011;54092;53.088;8.850;2023-11-18T04:34:35;13.88;;;7.78;;
67162;SDS011;54092;53.088;8.850;2023-11-18T04:37:02;15.63;;;8.90;;
67162;SDS011;54092;53.088;8.850;2023-11-18T04:39:28;14.65;;;8.50;;
67162;SDS011;54092;53.088;8.850;2023-11-18T04:41:57;18.25;;;10.00;;
67162;SDS011;54092;53.088;8.850;2023-11-18T04:44:22;22.63;;;10.55;;
67162;SDS011;54092;53.088;8.850;2023-11-18T04:46:48;25.60;;;11.35;;
67162;SDS011;54092;53.088;8.850;2023-11-18T04:49:14;21.75;;;10.98;;
67162;SDS011;54092;53.088;8.850;2023-11-18T04:51:40;21.40;;;10.07;;
67162;SDS011;54092;53.088;8.850;2023-11-18T04:54:05;22.02;;;12.13;;
67162;SDS011;54092;53.088;8.850;2023-11-18T04:56:33;21.55;;;11.27;;
67162;SDS011;54092;53.088;8.850;2023-11-18T04:59:02;21.92;;;12.32;;
67162;SDS011;54092;53.088;8.850;2023-11-18T05:01:30;21.60;;;11.82;;
67162;SDS011;54092;53.088;8.850;2023-11-18T05:03:56;20.75;;;11.40;;
67162;SDS011;54092;53.088;8.850;2023-11-18T05:06:21;25.00;;;12.75;;
67162;SDS011;54092;53.088;8.850;2023-11-18T05:08:47;27.85;;;13.30;;
67162;SDS011;54092;53.088;8.850;2023-11-18T05:11:13;26.63;;;11.98;;
67162;SDS011;54092;53.088;8.850;2023-11-18T05:13:38;31.48;;;13.95;;
67162;SDS011;54092;53.088;8.850;2023-11-18T05:16:07;36.17;;;14.27;;
67162;SDS011;54092;53.088;8.850;2023-11-18T05:18:33;29.88;;;14.40;;
67162;SDS011;54092;53.088;8.850;2023-11-18T05:21:00;29.30;;;12.82;;
67162;SDS011;54092;53.088;8.850;2023-11-18T05:23:27;30.13;;;13.65;;
67162;SDS011;54092;53.088;8.850;2023-11-18T05:25:56;30.48;;;14.10;;
67162;SDS011;54092;53.088;8.850;2023-11-18T05:28:23;27.45;;;13.52;;
67162;SDS011;54092;53.088;8.850;2023-11-18T05:30:49;26.05;;;13.35;;
67162;SDS011;54092;53.088;8.850;2023-11-18T05:33:15;26.90;;;12.68;;
67162;SDS011;54092;53.088;8.850;2023-11-18T05:35:45;23.52;;;12.60;;
67162;SDS011;54092;53.088;8.850;2023-11-18T05:38:15;25.92;;;13.35;;
67162;SDS011;54092;53.088;8.850;2023-11-18T05:40:46;46.97;;;18.20;;
67162;SDS011;54092;53.088;8.850;2023-11-18T05:43:22;70.43;;;26.00;;
67162;SDS011;54092;53.088;8.850;2023-11-18T05:45:54;162.40;;;52.58;;
67162;SDS011;54092;53.088;8.850;2023-11-18T05:48:38;317.25;;;116.28;;
67162;SDS011;54092;53.088;8.850;2023-11-18T05:51:04;307.17;;;122.43;;
67162;SDS011;54092;53.088;8.850;2023-11-18T05:53:30;321.92;;;118.75;;
67162;SDS011;54092;53.088;8.850;2023-11-18T05:55:56;263.02;;;98.35;;
67162;SDS011;54092;53.088;8.850;2023-11-18T05:58:21;157.60;;;56.25;;
67162;SDS011;54092;53.088;8.850;2023-11-18T06:00:47;168.82;;;66.43;;
67162;SDS011;54092;53.088;8.850;2023-11-18T06:03:13;162.38;;;62.67;;
67162;SDS011;54092;53.088;8.850;2023-11-18T06:05:39;81.35;;;31.98;;
67162;SDS011;54092;53.088;8.850;2023-11-18T06:08:04;92.13;;;33.53;;
67162;SDS011;54092;53.088;8.850;2023-11-18T06:10:30;80.05;;;34.75;;
67162;SDS011;54092;53.088;8.850;2023-11-18T06:12:59;93.90;;;39.40;;
67162;SDS011;54092;53.088;8.850;2023-11-18T06:15:25;85.20;;;37.85;;
67162;SDS011;54092;53.088;8.850;2023-11-18T06:17:52;85.95;;;36.47;;
67162;SDS011;54092;53.088;8.850;2023-11-18T06:20:20;63.75;;;29.60;;
67162;SDS011;54092;53.088;8.850;2023-11-18T06:22:45;64.47;;;26.80;;
67162;SDS011;54092;53.088;8.850;2023-11-18T06:25:11;49.00;;;21.40;;
67162;SDS011;54092;53.088;8.850;2023-11-18T06:27:37;46.10;;;20.70;;
67162;SDS011;54092;53.088;8.850;2023-11-18T06:30:03;49.60;;;22.73;;
67162;SDS011;54092;53.088;8.850;2023-11-18T06:32:31;51.92;;;24.95;;
67162;SDS011;54092;53.088;8.850;2023-11-18T06:34:57;59.97;;;27.48;;
67162;SDS011;54092;53.088;8.850;2023-11-18T06:37:23;70.78;;;32.67;;
67162;SDS011;54092;53.088;8.850;2023-11-18T06:39:49;72.43;;;33.75;;
67162;SDS011;54092;53.088;8.850;2023-11-18T06:42:15;72.70;;;33.85;;
67162;SDS011;54092;53.088;8.850;2023-11-18T06:44:41;84.18;;;36.90;;
67162;SDS011;54092;53.088;8.850;2023-11-18T06:47:06;70.95;;;33.00;;
67162;SDS011;54092;53.088;8.850;2023-11-18T06:49:32;75.82;;;32.42;;
67162;SDS011;54092;53.088;8.850;2023-11-18T06:52:01;76.65;;;34.67;;
67162;SDS011;54092;53.088;8.850;2023-11-18T06:54:28;80.85;;;35.83;;
67162;SDS011;54092;53.088;8.850;2023-11-18T06:56:54;82.70;;;33.90;;
67162;SDS011;54092;53.088;8.850;2023-11-18T06:59:19;63.78;;;29.63;;
67162;SDS011;54092;53.088;8.850;2023-11-18T07:01:45;59.17;;;26.15;;
67162;SDS011;54092;53.088;8.850;2023-11-18T07:04:10;57.80;;;24.85;;
67162;SDS011;54092;53.088;8.850;2023-11-18T07:06:36;45.63;;;20.42;;
67162;SDS011;54092;53.088;8.850;2023-11-18T07:09:03;43.20;;;19.58;;
67162;SDS011;54092;53.088;8.850;2023-11-18T07:11:34;44.40;;;19.67;;
67162;SDS011;54092;53.088;8.850;2023-11-18T07:14:00;43.10;;;17.98;;
67162;SDS011;54092;53.088;8.850;2023-11-18T07:16:25;45.55;;;18.73;;
67162;SDS011;54092;53.088;8.850;2023-11-18T07:18:51;42.25;;;17.92;;
67162;SDS011;54092;53.088;8.850;2023-11-18T07:21:18;44.33;;;18.33;;
67162;SDS011;54092;53.088;8.850;2023-11-18T07:23:44;47.08;;;19.23;;
67162;SDS011;54092;53.088;8.850;2023-11-18T07:26:09;44.70;;;20.45;;
67162;SDS011;54092;53.088;8.850;2023-11-18T07:28:35;42.85;;;19.23;;
67162;SDS011;54092;53.088;8.850;2023-11-18T07:31:01;48.22;;;20.83;;
67162;SDS011;54092;53.088;8.850;2023-11-18T07:33:29;45.28;;;19.35;;
67162;SDS011;54092;53.088;8.850;2023-11-18T07:35:57;53.67;;;20.38;;
67162;SDS011;54092;53.088;8.850;2023-11-18T07:38:23;50.72;;;20.75;;
67162;SDS011;54092;53.088;8.850;2023-11-18T07:40:49;46.30;;;20.50;;
67162;SDS011;54092;53.088;8.850;2023-11-18T07:43:17;54.17;;;21.70;;
67162;SDS011;54092;53.088;8.850;2023-11-18T07:45:46;50.87;;;21.63;;
67162;SDS011;54092;53.088;8.850;2023-11-18T07:48:14;53.90;;;22.17;;
67162;SDS011;54092;53.088;8.850;2023-11-18T07:50:42;54.58;;;22.23;;
67162;SDS011;54092;53.088;8.850;2023-11-18T07:53:12;54.40;;;19.80;;
67162;SDS011;54092;53.088;8.850;2023-11-18T07:55:38;59.17;;;22.83;;
67162;SDS011;54092;53.088;8.850;2023-11-18T07:58:04;49.25;;;20.05;;
67162;SDS011;54092;53.088;8.850;2023-11-18T08:00:35;58.85;;;20.95;;
67162;SDS011;54092;53.088;8.850;2023-11-18T08:03:10;65.85;;;21.70;;
67162;SDS011;54092;53.088;8.850;2023-11-18T08:05:43;61.15;;;22.30;;
67162;SDS011;54092;53.088;8.850;2023-11-18T08:08:10;60.65;;;22.42;;
67162;SDS011;54092;53.088;8.850;2023-11-18T08:10:37;62.70;;;22.75;;
67162;SDS011;54092;53.088;8.850;2023-11-18T08:13:04;60.65;;;22.45;;
67162;SDS011;54092;53.088;8.850;2023-11-18T08:15:34;53.95;;;21.98;;
67162;SDS011;54092;53.088;8.850;2023-11-18T08:18:02;51.47;;;19.77;;
67162;SDS011;54092;53.088;8.850;2023-11-18T08:20:28;60.65;;;23.23;;
67162;SDS011;54092;53.088;8.850;2023-11-18T08:22:54;53.65;;;22.08;;
67162;SDS011;54092;53.088;8.850;2023-11-18T08:25:20;63.08;;;24.88;;
67162;SDS011;54092;53.088;8.850;2023-11-18T08:27:46;62.65;;;23.92;;
67162;SDS011;54092;53.088;8.850;2023-11-18T08:30:12;61.35;;;22.88;;
67162;SDS011;54092;53.088;8.850;2023-11-18T08:32:38;58.90;;;23.42;;
67162;SDS011;54092;53.088;8.850;2023-11-18T08:35:08;61.35;;;22.70;;
67162;SDS011;54092;53.088;8.850;2023-11-18T08:40:02;58.10;;;23.25;;
67162;SDS011;54092;53.088;8.850;2023-11-18T08:42:28;66.75;;;23.02;;
67162;SDS011;54092;53.088;8.850;2023-11-18T08:44:54;62.33;;;23.75;;
67162;SDS011;54092;53.088;8.850;2023-11-18T08:47:20;66.57;;;24.55;;
67162;SDS011;54092;53.088;8.850;2023-11-18T08:49:46;67.15;;;24.75;;
67162;SDS011;54092;53.088;8.850;2023-11-18T08:52:12;61.13;;;24.40;;
67162;SDS011;54092;53.088;8.850;2023-11-18T08:54:38;70.00;;;23.80;;
67162;SDS011;54092;53.088;8.850;2023-11-18T08:57:24;58.85;;;24.70;;
67162;SDS011;54092;53.088;8.850;2023-11-18T08:59:50;67.30;;;23.00;;
67162;SDS011;54092;53.088;8.850;2023-11-18T09:02:19;61.22;;;22.33;;
67162;SDS011;54092;53.088;8.850;2023-11-18T09:04:48;61.75;;;22.75;;
67162;SDS011;54092;53.088;8.850;2023-11-18T09:07:15;65.32;;;23.77;;
67162;SDS011;54092;53.088;8.850;2023-11-18T09:09:41;64.97;;;25.48;;
67162;SDS011;54092;53.088;8.850;2023-11-18T09:12:06;54.95;;;22.45;;
67162;SDS011;54092;53.088;8.850;2023-11-18T09:14:33;63.25;;;23.20;;
67162;SDS011;54092;53.088;8.850;2023-11-18T09:16:59;66.40;;;24.67;;
67162;SDS011;54092;53.088;8.850;2023-11-18T09:19:25;59.58;;;24.02;;
67162;SDS011;54092;53.088;8.850;2023-11-18T09:21:50;52.72;;;21.65;;
67162;SDS011;54092;53.088;8.850;2023-11-18T09:24:20;58.40;;;21.27;;
67162;SDS011;54092;53.088;8.850;2023-11-18T09:26:46;54.10;;;21.58;;
67162;SDS011;54092;53.088;8.850;2023-11-18T09:29:13;51.47;;;21.20;;
67162;SDS011;54092;53.088;8.850;2023-11-18T09:31:42;47.42;;;20.23;;
67162;SDS011;54092;53.088;8.850;2023-11-18T09:34:13;52.17;;;19.60;;
67162;SDS011;54092;53.088;8.850;2023-11-18T09:36:41;53.00;;;20.83;;
67162;SDS011;54092;53.088;8.850;2023-11-18T09:39:08;49.60;;;22.35;;
67162;SDS011;54092;53.088;8.850;2023-11-18T09:41:40;52.50;;;21.77;;
67162;SDS011;54092;53.088;8.850;2023-11-18T09:44:06;82.20;;;30.60;;
67162;SDS011;54092;53.088;8.850;2023-11-18T09:46:32;60.75;;;23.15;;
67162;SDS011;54092;53.088;8.850;2023-11-18T09:49:39;52.38;;;22.35;;
67162;SDS011;54092;53.088;8.850;2023-11-18T09:52:04;58.15;;;23.23;;
67162;SDS011;54092;53.088;8.850;2023-11-18T10:02:38;50.28;;;19.13;;
67162;SDS011;54092;53.088;8.850;2023-11-18T10:05:05;52.05;;;20.05;;
67162;SDS011;54092;53.088;8.850;2023-11-18T10:07:38;45.88;;;19.17;;
67162;SDS011;54092;53.088;8.850;2023-11-18T10:10:10;42.95;;;17.40;;
67162;SDS011;54092;53.088;8.850;2023-11-18T10:12:42;47.50;;;19.30;;
67162;SDS011;54092;53.088;8.850;2023-11-18T10:15:11;52.67;;;20.95;;
67162;SDS011;54092;53.088;8.850;2023-11-18T10:17:42;53.63;;;21.88;;
67162;SDS011;54092;53.088;8.850;2023-11-18T10:23:08;49.03;;;18.83;;
67162;SDS011;54092;53.088;8.850;2023-11-18T10:25:35;47.65;;;18.77;;
67162;SDS011;54092;53.088;8.850;2023-11-18T10:28:05;45.83;;;18.75;;
67162;SDS011;54092;53.088;8.850;2023-11-18T10:30:32;51.17;;;19.98;;
67162;SDS011;54092;53.088;8.850;2023-11-18T10:33:07;50.20;;;18.95;;
67162;SDS011;54092;53.088;8.850;2023-11-18T10:35:33;52.97;;;19.55;;
67162;SDS011;54092;53.088;8.850;2023-11-18T10:38:03;51.47;;;19.63;;
67162;SDS011;54092;53.088;8.850;2023-11-18T10:40:34;48.25;;;18.67;;
67162;SDS011;54092;53.088;8.850;2023-11-18T10:43:01;47.65;;;18.83;;
67162;SDS011;54092;53.088;8.850;2023-11-18T10:45:34;48.40;;;20.73;;
67162;SDS011;54092;53.088;8.850;2023-11-18T10:48:04;57.35;;;21.25;;
67162;SDS011;54092;53.088;8.850;2023-11-18T10:50:31;56.47;;;22.17;;
67162;SDS011;54092;53.088;8.850;2023-11-18T10:52:57;64.38;;;23.38;;
67162;SDS011;54092;53.088;8.850;2023-11-18T10:55:36;56.00;;;21.20;;
67162;SDS011;54092;53.088;8.850;2023-11-18T10:58:03;61.17;;;23.00;;
67162;SDS011;54092;53.088;8.850;2023-11-18T11:00:47;63.30;;;22.67;;
67162;SDS011;54092;53.088;8.850;2023-11-18T11:03:20;56.67;;;23.02;;
67162;SDS011;54092;53.088;8.850;2023-11-18T11:05:49;56.60;;;22.10;;
67162;SDS011;54092;53.088;8.850;2023-11-18T11:08:15;57.35;;;22.75;;
67162;SDS011;54092;53.088;8.850;2023-11-18T11:10:41;56.28;;;20.85;;
67162;SDS011;54092;53.088;8.850;2023-11-18T11:13:08;54.10;;;21.92;;
67162;SDS011;54092;53.088;8.850;2023-11-18T11:15:36;51.97;;;20.27;;
67162;SDS011;54092;53.088;8.850;2023-11-18T11:18:10;60.08;;;20.73;;
67162;SDS011;54092;53.088;8.850;2023-11-18T11:21:14;49.60;;;21.45;;
67162;SDS011;54092;53.088;8.850;2023-11-18T11:28:58;48.88;;;19.52;;
67162;SDS011;54092;53.088;8.850;2023-11-18T11:31:57;48.25;;;20.08;;
67162;SDS011;54092;53.088;8.850;2023-11-18T11:34:37;49.10;;;20.40;;
67162;SDS011;54092;53.088;8.850;2023-11-18T11:37:13;51.85;;;21.42;;
67162;SDS011;54092;53.088;8.850;2023-11-18T11:39:40;47.38;;;19.20;;
67162;SDS011;54092;53.088;8.850;2023-11-18T11:42:11;43.78;;;19.65;;
67162;SDS011;54092;53.088;8.850;2023-11-18T11:44:42;41.60;;;18.45;;
67162;SDS011;54092;53.088;8.850;2023-11-18T11:47:09;48.47;;;20.30;;
67162;SDS011;54092;53.088;8.850;2023-11-18T11:49:47;48.22;;;20.02;;
67162;SDS011;54092;53.088;8.850;2023-11-18T11:52:28;46.72;;;19.70;;
67162;SDS011;54092;53.088;8.850;2023-11-18T11:55:05;40.45;;;18.77;;
67162;SDS011;54092;53.088;8.850;2023-11-18T11:57:40;39.53;;;19.48;;
67162;SDS011;54092;53.088;8.850;2023-11-18T12:00:09;46.03;;;19.63;;
67162;SDS011;54092;53.088;8.850;2023-11-18T12:02:48;42.67;;;18.55;;
67162;SDS011;54092;53.088;8.850;2023-11-18T12:05:17;36.58;;;16.58;;
67162;SDS011;54092;53.088;8.850;2023-11-18T12:07:50;44.33;;;20.05;;
67162;SDS011;54092;53.088;8.850;2023-11-18T12:10:20;44.25;;;19.58;;
67162;SDS011;54092;53.088;8.850;2023-11-18T12:12:46;40.78;;;18.25;;
67162;SDS011;54092;53.088;8.850;2023-11-18T12:15:13;47.17;;;19.80;;
67162;SDS011;54092;53.088;8.850;2023-11-18T12:23:13;38.90;;;17.63;;
67162;SDS011;54092;53.088;8.850;2023-11-18T12:25:39;37.97;;;17.90;;
67162;SDS011;54092;53.088;8.850;2023-11-18T12:28:09;38.17;;;17.42;;
67162;SDS011;54092;53.088;8.850;2023-11-18T12:30:39;40.72;;;18.17;;
67162;SDS011;54092;53.088;8.850;2023-11-18T12:33:16;38.67;;;17.35;;
67162;SDS011;54092;53.088;8.850;2023-11-18T12:41:05;40.60;;;17.80;;
67162;SDS011;54092;53.088;8.850;2023-11-18T12:43:49;45.90;;;19.63;;
67162;SDS011;54092;53.088;8.850;2023-11-18T12:49:21;39.92;;;19.00;;
67162;SDS011;54092;53.088;8.850;2023-11-18T12:51:49;37.22;;;17.27;;
67162;SDS011;54092;53.088;8.850;2023-11-18T12:54:16;37.03;;;17.35;;
67162;SDS011;54092;53.088;8.850;2023-11-18T12:56:43;39.63;;;17.35;;
67162;SDS011;54092;53.088;8.850;2023-11-18T12:59:13;42.17;;;17.20;;
67162;SDS011;54092;53.088;8.850;2023-11-18T13:01:42;51.05;;;19.30;;
67162;SDS011;54092;53.088;8.850;2023-11-18T13:04:17;41.10;;;17.05;;
67162;SDS011;54092;53.088;8.850;2023-11-18T13:06:44;37.33;;;16.63;;
67162;SDS011;54092;53.088;8.850;2023-11-18T13:09:11;40.67;;;17.20;;
67162;SDS011;54092;53.088;8.850;2023-11-18T13:11:49;41.95;;;16.20;;
67162;SDS011;54092;53.088;8.850;2023-11-18T13:14:17;38.42;;;17.00;;
67162;SDS011;54092;53.088;8.850;2023-11-18T13:16:42;41.05;;;16.33;;
67162;SDS011;54092;53.088;8.850;2023-11-18T13:19:10;43.55;;;17.58;;
67162;SDS011;54092;53.088;8.850;2023-11-18T13:21:35;36.33;;;16.50;;
67162;SDS011;54092;53.088;8.850;2023-11-18T13:24:01;42.40;;;16.40;;
67162;SDS011;54092;53.088;8.850;2023-11-18T13:26:30;41.92;;;17.20;;
67162;SDS011;54092;53.088;8.850;2023-11-18T13:28:58;41.88;;;16.23;;
67162;SDS011;54092;53.088;8.850;2023-11-18T13:31:26;42.85;;;17.13;;
67162;SDS011;54092;53.088;8.850;2023-11-18T13:33:52;40.92;;;15.90;;
67162;SDS011;54092;53.088;8.850;2023-11-18T13:36:18;39.88;;;17.20;;
67162;SDS011;54092;53.088;8.850;2023-11-18T13:38:47;42.47;;;16.55;;
67162;SDS011;54092;53.088;8.850;2023-11-18T13:41:27;33.08;;;15.90;;
67162;SDS011;54092;53.088;8.850;2023-11-18T13:43:56;44.03;;;16.77;;
67162;SDS011;54092;53.088;8.850;2023-11-18T13:46:23;38.72;;;16.67;;
67162;SDS011;54092;53.088;8.850;2023-11-18T13:48:49;38.58;;;15.15;;
67162;SDS011;54092;53.088;8.850;2023-11-18T13:51:15;37.70;;;15.75;;
67162;SDS011;54092;53.088;8.850;2023-11-18T13:53:42;39.20;;;16.00;;
67162;SDS011;54092;53.088;8.850;2023-11-18T13:56:09;32.60;;;14.57;;
67162;SDS011;54092;53.088;8.850;2023-11-18T13:58:36;33.15;;;13.98;;
67162;SDS011;54092;53.088;8.850;2023-11-18T14:01:05;49.97;;;20.13;;
67162;SDS011;54092;53.088;8.850;2023-11-18T14:03:33;34.35;;;13.45;;
67162;SDS011;54092;53.088;8.850;2023-11-18T14:06:01;33.70;;;13.17;;
67162;SDS011;54092;53.088;8.850;2023-11-18T14:08:31;34.10;;;12.55;;
67162;SDS011;54092;53.088;8.850;2023-11-18T14:10:56;34.65;;;13.25;;
67162;SDS011;54092;53.088;8.850;2023-11-18T14:13:22;28.63;;;11.88;;
67162;SDS011;54092;53.088;8.850;2023-11-18T14:15:48;31.05;;;13.05;;
67162;SDS011;54092;53.088;8.850;2023-11-18T14:18:20;28.90;;;11.45;;
67162;SDS011;54092;53.088;8.850;2023-11-18T14:20:45;24.35;;;10.60;;
67162;SDS011;54092;53.088;8.850;2023-11-18T14:23:11;26.15;;;10.43;;
67162;SDS011;54092;53.088;8.850;2023-11-18T14:25:39;22.35;;;10.25;;
67162;SDS011;54092;53.088;8.850;2023-11-18T14:28:04;21.85;;;9.88;;
67162;SDS011;54092;53.088;8.850;2023-11-18T14:30:30;24.33;;;9.73;;
67162;SDS011;54092;53.088;8.850;2023-11-18T14:32:55;22.25;;;9.55;;
67162;SDS011;54092;53.088;8.850;2023-11-18T14:35:21;20.65;;;8.93;;
67162;SDS011;54092;53.088;8.850;2023-11-18T14:37:47;23.95;;;8.68;;
67162;SDS011;54092;53.088;8.850;2023-11-18T14:40:13;23.17;;;10.02;;
67162;SDS011;54092;53.088;8.850;2023-11-18T14:42:46;24.63;;;9.77;;
67162;SDS011;54092;53.088;8.850;2023-11-18T14:45:14;23.58;;;9.15;;
67162;SDS011;54092;53.088;8.850;2023-11-18T14:47:40;18.40;;;9.07;;
67162;SDS011;54092;53.088;8.850;2023-11-18T14:50:06;20.65;;;9.38;;
67162;SDS011;54092;53.088;8.850;2023-11-18T14:52:40;26.58;;;10.25;;
67162;SDS011;54092;53.088;8.850;2023-11-18T14:55:06;24.25;;;9.65;;
67162;SDS011;54092;53.088;8.850;2023-11-18T14:57:37;19.92;;;8.85;;
67162;SDS011;54092;53.088;8.850;2023-11-18T15:00:04;18.90;;;9.45;;
67162;SDS011;54092;53.088;8.850;2023-11-18T15:05:14;21.35;;;9.68;;
67162;SDS011;54092;53.088;8.850;2023-11-18T15:10:16;21.52;;;9.18;;